sensor_id;sensor_type;location;lat;lon;timestamp;pressure;altitude;pressure_sealevel;temperature;humidity
29467;BME280;60968;37.490;-122.288;2023-05-11T00:02:37;99039.66;;;13.59;75.16
29467;BME280;60968;37.490;-122.288;2023-05-11T00:05:38;99045.25;;;13.45;76.45
29467;BME280;60968;37.490;-122.288;2023-05-11T00:08:39;99039.50;;;13.65;75.35
29467;BME280;60968;37.490;-122.288;2023-05-11T00:11:41;99039.44;;;13.67;73.56
29467;BME280;60968;37.490;-122.288;2023-05-11T00:14:42;99049.69;;;13.76;74.74
29467;BME280;60968;37.490;-122.288;2023-05-11T00:17:44;99050.63;;;13.73;73.81
29467;BME280;60968;37.490;-122.288;2023-05-11T00:20:47;99042.41;;;13.87;73.48
29467;BME280;60968;37.490;-122.288;2023-05-11T00:23:49;99048.50;;;13.88;72.55
29467;BME280;60968;37.490;-122.288;2023-05-11T00:26:51;99035.81;;;14.05;71.97
29467;BME280;60968;37.490;-122.288;2023-05-11T00:29:52;99046.41;;;14.01;71.08
29467;BME280;60968;37.490;-122.288;2023-05-11T00:32:53;99044.03;;;13.92;70.10
29467;BME280;60968;37.490;-122.288;2023-05-11T00:35:54;99045.06;;;13.86;69.69
29467;BME280;60968;37.490;-122.288;2023-05-11T00:38:55;99046.88;;;13.82;69.43
29467;BME280;60968;37.490;-122.288;2023-05-11T00:41:56;99046.13;;;13.79;69.96
29467;BME280;60968;37.490;-122.288;2023-05-11T00:44:57;99045.66;;;13.64;69.73
29467;BME280;60968;37.490;-122.288;2023-05-11T00:47:58;99037.53;;;13.41;68.72
29467;BME280;60968;37.490;-122.288;2023-05-11T00:50:59;99035.25;;;13.25;69.01
29467;BME280;60968;37.490;-122.288;2023-05-11T00:54:00;99029.44;;;13.14;69.02
29467;BME280;60968;37.490;-122.288;2023-05-11T00:57:02;99042.09;;;13.31;69.41
29467;BME280;60968;37.490;-122.288;2023-05-11T01:00:05;99027.69;;;13.13;69.42
29467;BME280;60968;37.490;-122.288;2023-05-11T01:03:06;99040.81;;;13.11;69.47
29467;BME280;60968;37.490;-122.288;2023-05-11T01:06:09;99031.50;;;12.99;70.89
29467;BME280;60968;37.490;-122.288;2023-05-11T01:21:53;99031.13;;;12.79;74.63
29467;BME280;60968;37.490;-122.288;2023-05-11T01:31:55;99041.25;;;12.53;77.10
29467;BME280;60968;37.490;-122.288;2023-05-11T01:35:09;99039.03;;;12.35;78.34
29467;BME280;60968;37.490;-122.288;2023-05-11T01:38:13;99042.94;;;12.14;79.99
29467;BME280;60968;37.490;-122.288;2023-05-11T01:41:18;99050.31;;;11.92;82.49
29467;BME280;60968;37.490;-122.288;2023-05-11T01:44:21;99048.81;;;11.77;84.18
29467;BME280;60968;37.490;-122.288;2023-05-11T01:47:27;99054.00;;;11.78;84.14
29467;BME280;60968;37.490;-122.288;2023-05-11T01:50:31;99056.84;;;11.67;83.68
29467;BME280;60968;37.490;-122.288;2023-05-11T01:53:34;99049.06;;;11.63;84.08
29467;BME280;60968;37.490;-122.288;2023-05-11T01:56:39;99052.66;;;11.57;83.93
29467;BME280;60968;37.490;-122.288;2023-05-11T01:59:41;99053.06;;;11.34;86.03
29467;BME280;60968;37.490;-122.288;2023-05-11T02:02:43;99052.34;;;11.24;87.30
29467;BME280;60968;37.490;-122.288;2023-05-11T02:05:46;99063.59;;;11.28;87.52
29467;BME280;60968;37.490;-122.288;2023-05-11T02:08:49;99055.66;;;11.34;87.93
29467;BME280;60968;37.490;-122.288;2023-05-11T02:11:53;99056.63;;;11.28;88.83
29467;BME280;60968;37.490;-122.288;2023-05-11T02:14:56;99061.91;;;11.25;88.71
29467;BME280;60968;37.490;-122.288;2023-05-11T02:17:58;99060.25;;;11.20;89.11
29467;BME280;60968;37.490;-122.288;2023-05-11T02:21:00;99063.84;;;11.12;89.78
29467;BME280;60968;37.490;-122.288;2023-05-11T02:24:04;99054.44;;;11.01;90.60
29467;BME280;60968;37.490;-122.288;2023-05-11T02:27:06;99055.34;;;10.99;91.37
29467;BME280;60968;37.490;-122.288;2023-05-11T02:30:07;99054.50;;;10.97;91.76
29467;BME280;60968;37.490;-122.288;2023-05-11T02:33:11;99052.00;;;10.91;93.04
29467;BME280;60968;37.490;-122.288;2023-05-11T02:36:18;99052.09;;;10.84;94.73
29467;BME280;60968;37.490;-122.288;2023-05-11T02:39:20;99053.84;;;10.83;94.86
29467;BME280;60968;37.490;-122.288;2023-05-11T02:42:22;99053.16;;;10.72;96.69
29467;BME280;60968;37.490;-122.288;2023-05-11T02:45:29;99065.34;;;10.68;97.91
29467;BME280;60968;37.490;-122.288;2023-05-11T02:48:36;99071.56;;;10.59;98.28
29467;BME280;60968;37.490;-122.288;2023-05-11T02:51:42;99069.88;;;10.54;99.02
29467;BME280;60968;37.490;-122.288;2023-05-11T02:54:44;99063.06;;;10.43;99.24
29467;BME280;60968;37.490;-122.288;2023-05-11T02:57:45;99055.28;;;10.40;98.21
29467;BME280;60968;37.490;-122.288;2023-05-11T03:00:47;99058.00;;;10.29;97.95
29467;BME280;60968;37.490;-122.288;2023-05-11T03:03:49;99058.22;;;10.09;99.31
29467;BME280;60968;37.490;-122.288;2023-05-11T03:06:50;99058.31;;;10.03;99.97
29467;BME280;60968;37.490;-122.288;2023-05-11T03:09:51;99061.78;;;10.02;100.00
29467;BME280;60968;37.490;-122.288;2023-05-11T03:12:52;99060.09;;;9.98;100.00
29467;BME280;60968;37.490;-122.288;2023-05-11T03:15:54;99062.78;;;9.92;100.00
29467;BME280;60968;37.490;-122.288;2023-05-11T03:18:55;99061.91;;;9.90;100.00
29467;BME280;60968;37.490;-122.288;2023-05-11T03:21:59;99067.22;;;9.81;100.00
29467;BME280;60968;37.490;-122.288;2023-05-11T03:25:02;99064.59;;;9.82;100.00
29467;BME280;60968;37.490;-122.288;2023-05-11T03:28:04;99063.75;;;9.78;100.00
29467;BME280;60968;37.490;-122.288;2023-05-11T03:31:06;99069.06;;;9.71;100.00
29467;BME280;60968;37.490;-122.288;2023-05-11T03:34:06;99069.97;;;9.67;100.00
29467;BME280;60968;37.490;-122.288;2023-05-11T03:37:09;99077.78;;;9.65;100.00
29467;BME280;60968;37.490;-122.288;2023-05-11T03:40:15;99076.94;;;9.60;100.00
29467;BME280;60968;37.490;-122.288;2023-05-11T03:43:17;99083.91;;;9.59;100.00
29467;BME280;60968;37.490;-122.288;2023-05-11T03:46:20;99083.84;;;9.64;100.00
29467;BME280;60968;37.490;-122.288;2023-05-11T03:49:23;99071.75;;;9.58;100.00
29467;BME280;60968;37.490;-122.288;2023-05-11T03:52:25;99078.69;;;9.61;100.00
29467;BME280;60968;37.490;-122.288;2023-05-11T03:55:29;99084.75;;;9.60;100.00
29467;BME280;60968;37.490;-122.288;2023-05-11T03:58:30;99082.25;;;9.52;100.00
29467;BME280;60968;37.490;-122.288;2023-05-11T04:01:31;99087.44;;;9.54;100.00
29467;BME280;60968;37.490;-122.288;2023-05-11T04:04:34;99089.94;;;9.63;100.00
29467;BME280;60968;37.490;-122.288;2023-05-11T04:07:36;99086.50;;;9.61;100.00
29467;BME280;60968;37.490;-122.288;2023-05-11T04:10:37;99082.16;;;9.60;100.00
29467;BME280;60968;37.490;-122.288;2023-05-11T04:13:38;99096.88;;;9.64;100.00
29467;BME280;60968;37.490;-122.288;2023-05-11T04:16:41;99101.19;;;9.65;100.00
29467;BME280;60968;37.490;-122.288;2023-05-11T04:19:42;99097.72;;;9.63;100.00
29467;BME280;60968;37.490;-122.288;2023-05-11T04:22:42;99102.97;;;9.60;100.00
29467;BME280;60968;37.490;-122.288;2023-05-11T04:25:43;99098.69;;;9.54;100.00
29467;BME280;60968;37.490;-122.288;2023-05-11T04:28:45;99108.22;;;9.55;100.00
29467;BME280;60968;37.490;-122.288;2023-05-11T04:31:46;99104.63;;;9.69;100.00
29467;BME280;60968;37.490;-122.288;2023-05-11T04:34:48;99110.63;;;9.77;100.00
29467;BME280;60968;37.490;-122.288;2023-05-11T04:37:49;99118.44;;;9.77;100.00
29467;BME280;60968;37.490;-122.288;2023-05-11T04:40:50;99123.63;;;9.77;100.00
29467;BME280;60968;37.490;-122.288;2023-05-11T04:43:51;99119.38;;;9.68;100.00
29467;BME280;60968;37.490;-122.288;2023-05-11T04:46:55;99125.44;;;9.72;100.00
29467;BME280;60968;37.490;-122.288;2023-05-11T04:49:56;99132.22;;;9.85;100.00
29467;BME280;60968;37.490;-122.288;2023-05-11T04:52:57;99130.47;;;9.90;100.00
29467;BME280;60968;37.490;-122.288;2023-05-11T04:55:58;99133.03;;;9.93;100.00
29467;BME280;60968;37.490;-122.288;2023-05-11T04:58:59;99136.41;;;10.03;100.00
29467;BME280;60968;37.490;-122.288;2023-05-11T05:02:00;99136.38;;;10.06;100.00
29467;BME280;60968;37.490;-122.288;2023-05-11T05:05:01;99128.53;;;10.09;100.00
29467;BME280;60968;37.490;-122.288;2023-05-11T05:08:01;99133.81;;;10.03;100.00
29467;BME280;60968;37.490;-122.288;2023-05-11T05:11:02;99136.47;;;9.99;100.00
29467;BME280;60968;37.490;-122.288;2023-05-11T05:14:03;99132.97;;;9.98;100.00
29467;BME280;60968;37.490;-122.288;2023-05-11T05:17:04;99139.00;;;10.05;100.00
29467;BME280;60968;37.490;-122.288;2023-05-11T05:20:06;99135.50;;;10.07;100.00
29467;BME280;60968;37.490;-122.288;2023-05-11T05:23:07;99133.84;;;9.95;100.00
29467;BME280;60968;37.490;-122.288;2023-05-11T05:26:09;99135.69;;;9.89;100.00
29467;BME280;60968;37.490;-122.288;2023-05-11T05:29:11;99139.19;;;9.83;100.00
29467;BME280;60968;37.490;-122.288;2023-05-11T05:32:11;99142.72;;;9.76;100.00
29467;BME280;60968;37.490;-122.288;2023-05-11T05:35:12;99153.97;;;9.79;100.00
29467;BME280;60968;37.490;-122.288;2023-05-11T05:38:13;99138.34;;;9.79;100.00
29467;BME280;60968;37.490;-122.288;2023-05-11T05:41:14;99139.28;;;9.72;100.00
29467;BME280;60968;37.490;-122.288;2023-05-11T05:44:15;99135.94;;;9.59;100.00
29467;BME280;60968;37.490;-122.288;2023-05-11T05:47:16;99139.44;;;9.55;100.00
29467;BME280;60968;37.490;-122.288;2023-05-11T05:50:16;99143.75;;;9.53;100.00
29467;BME280;60968;37.490;-122.288;2023-05-11T05:53:18;99142.94;;;9.51;100.00
29467;BME280;60968;37.490;-122.288;2023-05-11T05:56:18;99141.25;;;9.46;100.00
29467;BME280;60968;37.490;-122.288;2023-05-11T05:59:19;99138.63;;;9.46;100.00
29467;BME280;60968;37.490;-122.288;2023-05-11T06:02:20;99129.13;;;9.41;100.00
29467;BME280;60968;37.490;-122.288;2023-05-11T06:05:21;99131.72;;;9.41;100.00
29467;BME280;60968;37.490;-122.288;2023-05-11T06:08:22;99124.75;;;9.43;100.00
29467;BME280;60968;37.490;-122.288;2023-05-11T06:11:23;99135.94;;;9.55;100.00
29467;BME280;60968;37.490;-122.288;2023-05-11T06:14:25;99130.66;;;9.66;100.00
29467;BME280;60968;37.490;-122.288;2023-05-11T06:17:25;99140.22;;;9.65;100.00
29467;BME280;60968;37.490;-122.288;2023-05-11T06:20:26;99134.22;;;9.55;100.00
29467;BME280;60968;37.490;-122.288;2023-05-11T06:23:27;99139.34;;;9.63;100.00
29467;BME280;60968;37.490;-122.288;2023-05-11T06:26:28;99137.53;;;9.73;100.00
29467;BME280;60968;37.490;-122.288;2023-05-11T06:29:29;99134.88;;;9.82;100.00
29467;BME280;60968;37.490;-122.288;2023-05-11T06:32:29;99143.47;;;9.92;100.00
29467;BME280;60968;37.490;-122.288;2023-05-11T06:35:30;99142.50;;;9.99;100.00
29467;BME280;60968;37.490;-122.288;2023-05-11T06:38:31;99135.50;;;10.06;100.00
29467;BME280;60968;37.490;-122.288;2023-05-11T06:41:32;99131.25;;;9.99;100.00
29467;BME280;60968;37.490;-122.288;2023-05-11T06:44:33;99128.66;;;9.94;100.00
29467;BME280;60968;37.490;-122.288;2023-05-11T06:47:34;99138.28;;;9.90;100.00
29467;BME280;60968;37.490;-122.288;2023-05-11T06:50:35;99130.47;;;9.90;100.00
29467;BME280;60968;37.490;-122.288;2023-05-11T06:53:36;99127.84;;;9.92;100.00
29467;BME280;60968;37.490;-122.288;2023-05-11T06:56:36;99136.59;;;9.85;100.00
29467;BME280;60968;37.490;-122.288;2023-05-11T06:59:37;99133.09;;;9.86;100.00
29467;BME280;60968;37.490;-122.288;2023-05-11T07:02:38;99135.59;;;9.96;100.00
29467;BME280;60968;37.490;-122.288;2023-05-11T07:05:40;99138.16;;;10.01;100.00
29467;BME280;60968;37.490;-122.288;2023-05-11T07:08:41;99137.28;;;10.01;100.00
29467;BME280;60968;37.490;-122.288;2023-05-11T07:11:42;99137.38;;;9.93;100.00
29467;BME280;60968;37.490;-122.288;2023-05-11T07:14:43;99146.03;;;9.93;100.00
29467;BME280;60968;37.490;-122.288;2023-05-11T07:17:44;99147.66;;;10.08;100.00
29467;BME280;60968;37.490;-122.288;2023-05-11T07:20:44;99135.38;;;10.17;100.00
29467;BME280;60968;37.490;-122.288;2023-05-11T07:23:47;99143.09;;;10.26;100.00
29467;BME280;60968;37.490;-122.288;2023-05-11T07:26:50;99137.06;;;10.22;100.00
29467;BME280;60968;37.490;-122.288;2023-05-11T07:29:51;99134.44;;;10.25;100.00
29467;BME280;60968;37.490;-122.288;2023-05-11T07:32:52;99136.97;;;10.32;100.00
29467;BME280;60968;37.490;-122.288;2023-05-11T07:35:53;99137.06;;;10.24;100.00
29467;BME280;60968;37.490;-122.288;2023-05-11T07:38:54;99137.06;;;10.24;100.00
29467;BME280;60968;37.490;-122.288;2023-05-11T07:41:55;99143.94;;;10.28;100.00
29467;BME280;60968;37.490;-122.288;2023-05-11T07:44:56;99134.44;;;10.25;100.00
29467;BME280;60968;37.490;-122.288;2023-05-11T07:47:57;99127.53;;;10.23;100.00
29467;BME280;60968;37.490;-122.288;2023-05-11T07:50:57;99128.41;;;10.20;100.00
29467;BME280;60968;37.490;-122.288;2023-05-11T07:53:58;99129.25;;;10.21;100.00
29467;BME280;60968;37.490;-122.288;2023-05-11T07:57:00;99128.47;;;10.16;100.00
29467;BME280;60968;37.490;-122.288;2023-05-11T08:00:01;99127.66;;;10.10;100.00
29467;BME280;60968;37.490;-122.288;2023-05-11T08:03:02;99121.59;;;10.10;100.00
29467;BME280;60968;37.490;-122.288;2023-05-11T08:06:05;99121.56;;;10.11;100.00
29467;BME280;60968;37.490;-122.288;2023-05-11T08:09:06;99129.28;;;10.19;100.00
29467;BME280;60968;37.490;-122.288;2023-05-11T08:12:08;99121.44;;;10.22;100.00
29467;BME280;60968;37.490;-122.288;2023-05-11T08:15:09;99110.09;;;10.28;100.00
29467;BME280;60968;37.490;-122.288;2023-05-11T08:18:11;99118.81;;;10.27;100.00
29467;BME280;60968;37.490;-122.288;2023-05-11T08:21:13;99119.69;;;10.26;100.00
29467;BME280;60968;37.490;-122.288;2023-05-11T08:24:14;99111.94;;;10.17;100.00
29467;BME280;60968;37.490;-122.288;2023-05-11T08:27:15;99117.28;;;10.06;100.00
29467;BME280;60968;37.490;-122.288;2023-05-11T08:30:16;99107.72;;;10.06;100.00
29467;BME280;60968;37.490;-122.288;2023-05-11T08:33:17;99111.25;;;10.01;100.00
29467;BME280;60968;37.490;-122.288;2023-05-11T08:36:18;99107.72;;;10.08;100.00
29467;BME280;60968;37.490;-122.288;2023-05-11T08:39:20;99107.72;;;10.08;100.00
29467;BME280;60968;37.490;-122.288;2023-05-11T08:42:23;99104.19;;;10.13;100.00
29467;BME280;60968;37.490;-122.288;2023-05-11T08:45:25;99105.91;;;10.15;100.00
29467;BME280;60968;37.490;-122.288;2023-05-11T08:48:29;99098.91;;;10.18;100.00
29467;BME280;60968;37.490;-122.288;2023-05-11T08:51:32;99106.78;;;10.13;100.00
29467;BME280;60968;37.490;-122.288;2023-05-11T08:54:33;99102.34;;;10.22;100.00
29467;BME280;60968;37.490;-122.288;2023-05-11T08:57:34;99103.19;;;10.27;100.00
29467;BME280;60968;37.490;-122.288;2023-05-11T09:00:36;99098.81;;;10.29;100.00
29467;BME280;60968;37.490;-122.288;2023-05-11T09:03:38;99090.13;;;10.30;100.00
29467;BME280;60968;37.490;-122.288;2023-05-11T09:06:41;99092.69;;;10.33;100.00
29467;BME280;60968;37.490;-122.288;2023-05-11T09:09:45;99085.78;;;10.29;100.00
29467;BME280;60968;37.490;-122.288;2023-05-11T09:12:46;99084.09;;;10.25;100.00
29467;BME280;60968;37.490;-122.288;2023-05-11T09:15:47;99088.50;;;10.17;100.00
29467;BME280;60968;37.490;-122.288;2023-05-11T09:18:51;99078.28;;;10.03;100.00
29467;BME280;60968;37.490;-122.288;2023-05-11T09:21:54;99079.97;;;10.08;100.00
29467;BME280;60968;37.490;-122.288;2023-05-11T09:24:56;99072.09;;;10.11;100.00
29467;BME280;60968;37.490;-122.288;2023-05-11T09:27:58;99077.22;;;10.18;100.00
29467;BME280;60968;37.490;-122.288;2023-05-11T09:31:00;99074.56;;;10.22;100.00
29467;BME280;60968;37.490;-122.288;2023-05-11T09:34:12;99071.09;;;10.23;100.00
29467;BME280;60968;37.490;-122.288;2023-05-11T09:37:17;99077.19;;;10.21;100.00
29467;BME280;60968;37.490;-122.288;2023-05-11T09:40:27;99071.97;;;10.22;100.00
29467;BME280;60968;37.490;-122.288;2023-05-11T09:43:29;99074.59;;;10.21;100.00
29467;BME280;60968;37.490;-122.288;2023-05-11T09:46:31;99074.56;;;10.24;100.00
29467;BME280;60968;37.490;-122.288;2023-05-11T09:49:32;99075.41;;;10.26;100.00
29467;BME280;60968;37.490;-122.288;2023-05-11T09:52:33;99075.44;;;10.23;100.00
29467;BME280;60968;37.490;-122.288;2023-05-11T09:55:34;99072.81;;;10.24;100.00
29467;BME280;60968;37.490;-122.288;2023-05-11T09:58:51;99067.59;;;10.26;100.00
29467;BME280;60968;37.490;-122.288;2023-05-11T10:01:53;99070.25;;;10.18;100.00
29467;BME280;60968;37.490;-122.288;2023-05-11T10:04:59;99060.78;;;10.16;100.00
29467;BME280;60968;37.490;-122.288;2023-05-11T10:08:05;99055.59;;;10.14;100.00
29467;BME280;60968;37.490;-122.288;2023-05-11T10:11:07;99056.41;;;10.18;100.00
29467;BME280;60968;37.490;-122.288;2023-05-11T10:14:11;99053.81;;;10.16;100.00
29467;BME280;60968;37.490;-122.288;2023-05-11T10:17:12;99051.19;;;10.18;100.00
29467;BME280;60968;37.490;-122.288;2023-05-11T10:20:14;99048.56;;;10.19;100.00
29467;BME280;60968;37.490;-122.288;2023-05-11T10:23:16;99049.47;;;10.17;100.00
29467;BME280;60968;37.490;-122.288;2023-05-11T10:26:19;99053.72;;;10.22;100.00
29467;BME280;60968;37.490;-122.288;2023-05-11T10:29:21;99048.59;;;10.18;100.00
29467;BME280;60968;37.490;-122.288;2023-05-11T10:32:22;99053.06;;;10.06;100.00
29467;BME280;60968;37.490;-122.288;2023-05-11T10:35:24;99055.69;;;10.05;100.00
29467;BME280;60968;37.490;-122.288;2023-05-11T10:38:26;99053.09;;;10.03;100.00
29467;BME280;60968;37.490;-122.288;2023-05-11T11:02:01;99033.22;;;9.96;100.00
29467;BME280;60968;37.490;-122.288;2023-05-11T11:05:03;99032.38;;;9.94;100.00
29467;BME280;60968;37.490;-122.288;2023-05-11T11:08:05;99035.06;;;9.86;100.00
29467;BME280;60968;37.490;-122.288;2023-05-11T11:11:38;99032.44;;;9.88;100.00
29467;BME280;60968;37.490;-122.288;2023-05-11T11:14:56;99029.75;;;9.95;100.00
29467;BME280;60968;37.490;-122.288;2023-05-11T11:21:41;99026.28;;;9.95;100.00
29467;BME280;60968;37.490;-122.288;2023-05-11T11:24:43;99025.47;;;9.93;100.00
29467;BME280;60968;37.490;-122.288;2023-05-11T11:30:45;99030.72;;;9.87;100.00
29467;BME280;60968;37.490;-122.288;2023-05-11T11:33:46;99025.44;;;9.91;100.00
29467;BME280;60968;37.490;-122.288;2023-05-11T11:36:59;99029.00;;;9.87;100.00
29467;BME280;60968;37.490;-122.288;2023-05-11T11:40:00;99024.66;;;9.86;100.00
29467;BME280;60968;37.490;-122.288;2023-05-11T11:43:22;99026.25;;;9.98;100.00
29467;BME280;60968;37.490;-122.288;2023-05-11T11:46:29;99027.09;;;10.00;100.00
29467;BME280;60968;37.490;-122.288;2023-05-11T11:49:30;99021.94;;;9.99;100.00
29467;BME280;60968;37.490;-122.288;2023-05-11T11:52:33;99014.09;;;10.00;100.00
29467;BME280;60968;37.490;-122.288;2023-05-11T11:55:45;99025.34;;;10.02;100.00
29467;BME280;60968;37.490;-122.288;2023-05-11T12:01:50;99016.72;;;9.97;100.00
29467;BME280;60968;37.490;-122.288;2023-05-11T12:04:56;99018.53;;;9.92;100.00
29467;BME280;60968;37.490;-122.288;2023-05-11T12:08:05;99023.66;;;9.98;100.00
29467;BME280;60968;37.490;-122.288;2023-05-11T12:11:06;99019.28;;;10.02;100.00
29467;BME280;60968;37.490;-122.288;2023-05-11T12:14:08;99017.59;;;9.96;100.00
29467;BME280;60968;37.490;-122.288;2023-05-11T12:17:09;99008.97;;;9.91;100.00
29467;BME280;60968;37.490;-122.288;2023-05-11T12:20:14;99012.44;;;9.91;100.00
29467;BME280;60968;37.490;-122.288;2023-05-11T12:23:16;99014.19;;;9.91;100.00
29467;BME280;60968;37.490;-122.288;2023-05-11T12:26:19;99010.75;;;9.90;100.00
29467;BME280;60968;37.490;-122.288;2023-05-11T12:29:20;99017.69;;;9.88;100.00
29467;BME280;60968;37.490;-122.288;2023-05-11T12:32:29;99017.69;;;9.87;100.00
29467;BME280;60968;37.490;-122.288;2023-05-11T12:35:32;99017.66;;;9.90;100.00
29467;BME280;60968;37.490;-122.288;2023-05-11T12:38:41;99012.50;;;9.87;100.00
29467;BME280;60968;37.490;-122.288;2023-05-11T12:41:42;99012.50;;;9.87;100.00
29467;BME280;60968;37.490;-122.288;2023-05-11T12:44:44;99011.59;;;9.91;100.00
29467;BME280;60968;37.490;-122.288;2023-05-11T12:47:49;99011.53;;;9.94;100.00
29467;BME280;60968;37.490;-122.288;2023-05-11T12:50:50;99006.34;;;9.94;100.00
29467;BME280;60968;37.490;-122.288;2023-05-11T12:53:51;99011.59;;;9.91;100.00
29467;BME280;60968;37.490;-122.288;2023-05-11T12:56:52;99012.53;;;9.84;100.00
29467;BME280;60968;37.490;-122.288;2023-05-11T13:03:23;99008.16;;;9.89;100.00
29467;BME280;60968;37.490;-122.288;2023-05-11T13:06:24;99015.06;;;9.93;100.00
29467;BME280;60968;37.490;-122.288;2023-05-11T13:09:26;99020.25;;;9.93;100.00
29467;BME280;60968;37.490;-122.288;2023-05-11T13:12:28;99017.66;;;9.90;100.00
29467;BME280;60968;37.490;-122.288;2023-05-11T13:15:28;99024.59;;;9.91;100.00
29467;BME280;60968;37.490;-122.288;2023-05-11T13:18:29;99026.38;;;9.89;100.00
29467;BME280;60968;37.490;-122.288;2023-05-11T13:21:31;99028.94;;;9.92;100.00
29467;BME280;60968;37.490;-122.288;2023-05-11T13:24:32;99030.66;;;9.91;100.00
29467;BME280;60968;37.490;-122.288;2023-05-11T13:27:32;99026.34;;;9.92;100.00
29467;BME280;60968;37.490;-122.288;2023-05-11T13:30:33;99029.75;;;9.95;100.00
29467;BME280;60968;37.490;-122.288;2023-05-11T13:33:34;99031.47;;;9.98;100.00
29467;BME280;60968;37.490;-122.288;2023-05-11T13:36:35;99037.50;;;10.02;100.00
29467;BME280;60968;37.490;-122.288;2023-05-11T13:39:36;99044.41;;;10.06;100.00
29467;BME280;60968;37.490;-122.288;2023-05-11T13:42:37;99037.41;;;10.09;100.00
29467;BME280;60968;37.490;-122.288;2023-05-11T13:45:39;99043.41;;;10.16;100.00
29467;BME280;60968;37.490;-122.288;2023-05-11T13:48:40;99041.63;;;10.18;100.00
29467;BME280;60968;37.490;-122.288;2023-05-11T13:51:40;99038.19;;;10.16;100.00
29467;BME280;60968;37.490;-122.288;2023-05-11T13:54:41;99039.00;;;10.23;100.00
29467;BME280;60968;37.490;-122.288;2023-05-11T13:57:43;99041.56;;;10.24;100.00
29467;BME280;60968;37.490;-122.288;2023-05-11T14:00:44;99049.28;;;10.30;100.00
29467;BME280;60968;37.490;-122.288;2023-05-11T14:03:50;99052.72;;;10.37;100.00
29467;BME280;60968;37.490;-122.288;2023-05-11T14:06:52;99038.69;;;10.47;100.00
29467;BME280;60968;37.490;-122.288;2023-05-11T14:09:53;99044.69;;;10.54;100.00
29467;BME280;60968;37.490;-122.288;2023-05-11T14:12:54;99054.31;;;10.51;100.00
29467;BME280;60968;37.490;-122.288;2023-05-11T14:15:55;99063.81;;;10.52;100.00
29467;BME280;60968;37.490;-122.288;2023-05-11T14:18:56;99062.13;;;10.49;100.00
29467;BME280;60968;37.490;-122.288;2023-05-11T14:21:58;99062.22;;;10.41;100.00
29467;BME280;60968;37.490;-122.288;2023-05-11T14:24:59;99071.75;;;10.44;100.00
29467;BME280;60968;37.490;-122.288;2023-05-11T14:28:00;99073.41;;;10.50;100.00
29467;BME280;60968;37.490;-122.288;2023-05-11T14:31:01;99081.97;;;10.59;100.00
29467;BME280;60968;37.490;-122.288;2023-05-11T14:34:04;99085.28;;;10.71;100.00
29467;BME280;60968;37.490;-122.288;2023-05-11T14:37:05;99084.41;;;10.73;100.00
29467;BME280;60968;37.490;-122.288;2023-05-11T14:40:07;99092.13;;;10.79;100.00
29467;BME280;60968;37.490;-122.288;2023-05-11T14:43:08;99097.28;;;10.82;100.00
29467;BME280;60968;37.490;-122.288;2023-05-11T14:46:10;99091.09;;;10.90;100.00
29467;BME280;60968;37.490;-122.288;2023-05-11T14:49:11;99084.16;;;10.90;100.00
29467;BME280;60968;37.490;-122.288;2023-05-11T14:52:12;99099.78;;;10.92;100.00
29467;BME280;60968;37.490;-122.288;2023-05-11T14:55:13;99100.59;;;10.94;100.00
29467;BME280;60968;37.490;-122.288;2023-05-11T14:58:14;99092.72;;;10.98;100.00
29467;BME280;60968;37.490;-122.288;2023-05-11T15:01:16;99094.47;;;10.98;100.00
29467;BME280;60968;37.490;-122.288;2023-05-11T15:04:18;99090.94;;;11.01;100.00
29467;BME280;60968;37.490;-122.288;2023-05-11T15:07:19;99087.38;;;11.08;100.00
29467;BME280;60968;37.490;-122.288;2023-05-11T15:10:20;99082.69;;;11.30;100.00
29467;BME280;60968;37.490;-122.288;2023-05-11T15:13:21;99083.25;;;11.49;100.00
29467;BME280;60968;37.490;-122.288;2023-05-11T15:16:21;99084.94;;;11.52;100.00
29467;BME280;60968;37.490;-122.288;2023-05-11T15:19:22;99088.34;;;11.57;100.00
29467;BME280;60968;37.490;-122.288;2023-05-11T15:22:24;99084.16;;;11.46;100.00
29467;BME280;60968;37.490;-122.288;2023-05-11T15:25:25;99091.19;;;11.41;100.00
29467;BME280;60968;37.490;-122.288;2023-05-11T15:28:26;99094.38;;;11.60;100.00
29467;BME280;60968;37.490;-122.288;2023-05-11T15:31:27;99103.56;;;11.83;100.00
29467;BME280;60968;37.490;-122.288;2023-05-11T15:34:29;99108.50;;;12.00;99.66
29467;BME280;60968;37.490;-122.288;2023-05-11T15:37:30;99103.06;;;12.11;98.96
29467;BME280;60968;37.490;-122.288;2023-05-11T15:40:31;99095.22;;;12.97;92.50
29467;BME280;60968;37.490;-122.288;2023-05-11T15:43:33;99109.09;;;12.99;92.17
29467;BME280;60968;37.490;-122.288;2023-05-11T15:46:34;99108.78;;;12.74;93.97
29467;BME280;60968;37.490;-122.288;2023-05-11T15:49:35;99103.13;;;12.51;93.31
29467;BME280;60968;37.490;-122.288;2023-05-11T15:52:36;99096.03;;;12.58;94.10
29467;BME280;60968;37.490;-122.288;2023-05-11T15:55:37;99101.91;;;12.69;91.38
29467;BME280;60968;37.490;-122.288;2023-05-11T15:58:38;99104.34;;;12.77;91.61
29467;BME280;60968;37.490;-122.288;2023-05-11T16:01:39;99106.78;;;12.85;91.22
29467;BME280;60968;37.490;-122.288;2023-05-11T16:04:41;99110.84;;;13.00;91.45
29467;BME280;60968;37.490;-122.288;2023-05-11T16:07:42;99115.34;;;12.93;91.55
29467;BME280;60968;37.490;-122.288;2023-05-11T16:10:43;99110.88;;;12.98;89.99
29467;BME280;60968;37.490;-122.288;2023-05-11T16:13:44;99115.78;;;13.12;89.25
29467;BME280;60968;37.490;-122.288;2023-05-11T16:16:45;99126.22;;;13.14;90.46